sensor_id;sensor_type;location;lat;lon;timestamp;P1;durP1;ratioP1;P2;durP2;ratioP2
74908;SDS011;63468;52.058;4.824;2023-08-20T00:00:45;14.02;;;5.43;;
74908;SDS011;63468;52.058;4.824;2023-08-20T00:03:11;9.30;;;5.10;;
74908;SDS011;63468;52.058;4.824;2023-08-20T00:05:37;12.23;;;4.97;;
74908;SDS011;63468;52.058;4.824;2023-08-20T00:08:03;10.20;;;4.90;;
74908;SDS011;63468;52.058;4.824;2023-08-20T00:10:29;13.15;;;5.43;;
74908;SDS011;63468;52.058;4.824;2023-08-20T00:12:55;10.82;;;5.43;;
74908;SDS011;63468;52.058;4.824;2023-08-20T00:15:20;8.30;;;5.32;;
74908;SDS011;63468;52.058;4.824;2023-08-20T00:17:47;12.88;;;5.55;;
74908;SDS011;63468;52.058;4.824;2023-08-20T00:20:13;10.93;;;5.18;;
74908;SDS011;63468;52.058;4.824;2023-08-20T00:22:42;9.90;;;4.70;;
74908;SDS011;63468;52.058;4.824;2023-08-20T00:25:10;10.18;;;4.63;;
74908;SDS011;63468;52.058;4.824;2023-08-20T00:27:36;15.27;;;5.32;;
74908;SDS011;63468;52.058;4.824;2023-08-20T00:30:01;9.25;;;4.82;;
74908;SDS011;63468;52.058;4.824;2023-08-20T00:32:26;11.30;;;5.28;;
74908;SDS011;63468;52.058;4.824;2023-08-20T00:34:52;9.27;;;4.85;;
74908;SDS011;63468;52.058;4.824;2023-08-20T00:37:17;9.73;;;4.82;;
74908;SDS011;63468;52.058;4.824;2023-08-20T00:39:42;8.77;;;4.60;;
74908;SDS011;63468;52.058;4.824;2023-08-20T00:42:08;11.13;;;5.20;;
74908;SDS011;63468;52.058;4.824;2023-08-20T00:44:33;10.63;;;4.95;;
74908;SDS011;63468;52.058;4.824;2023-08-20T00:46:59;10.68;;;4.88;;
74908;SDS011;63468;52.058;4.824;2023-08-20T00:49:26;14.85;;;5.57;;
74908;SDS011;63468;52.058;4.824;2023-08-20T00:51:52;16.50;;;5.15;;
74908;SDS011;63468;52.058;4.824;2023-08-20T00:54:17;10.45;;;4.75;;
74908;SDS011;63468;52.058;4.824;2023-08-20T00:56:42;11.90;;;4.97;;
74908;SDS011;63468;52.058;4.824;2023-08-20T00:59:09;11.75;;;5.30;;
74908;SDS011;63468;52.058;4.824;2023-08-20T01:01:35;14.32;;;5.45;;
74908;SDS011;63468;52.058;4.824;2023-08-20T01:04:00;15.20;;;6.40;;
74908;SDS011;63468;52.058;4.824;2023-08-20T01:12:00;13.43;;;5.82;;
74908;SDS011;63468;52.058;4.824;2023-08-20T01:14:25;11.13;;;5.00;;
74908;SDS011;63468;52.058;4.824;2023-08-20T01:16:51;16.33;;;5.55;;
74908;SDS011;63468;52.058;4.824;2023-08-20T01:19:17;11.63;;;5.22;;
74908;SDS011;63468;52.058;4.824;2023-08-20T01:21:47;13.48;;;5.38;;
74908;SDS011;63468;52.058;4.824;2023-08-20T01:29:42;14.10;;;5.68;;
74908;SDS011;63468;52.058;4.824;2023-08-20T01:32:08;9.95;;;4.55;;
74908;SDS011;63468;52.058;4.824;2023-08-20T01:34:33;9.32;;;4.85;;
74908;SDS011;63468;52.058;4.824;2023-08-20T01:36:58;12.13;;;5.05;;
74908;SDS011;63468;52.058;4.824;2023-08-20T01:39:24;14.43;;;6.22;;
74908;SDS011;63468;52.058;4.824;2023-08-20T01:41:49;11.68;;;5.47;;
74908;SDS011;63468;52.058;4.824;2023-08-20T01:44:14;14.43;;;6.28;;
74908;SDS011;63468;52.058;4.824;2023-08-20T01:46:40;14.40;;;5.55;;
74908;SDS011;63468;52.058;4.824;2023-08-20T01:49:05;10.50;;;5.28;;
74908;SDS011;63468;52.058;4.824;2023-08-20T01:51:31;11.38;;;5.85;;
74908;SDS011;63468;52.058;4.824;2023-08-20T01:53:56;10.70;;;5.30;;
74908;SDS011;63468;52.058;4.824;2023-08-20T01:56:21;14.50;;;5.10;;
74908;SDS011;63468;52.058;4.824;2023-08-20T01:58:47;8.63;;;5.72;;
74908;SDS011;63468;52.058;4.824;2023-08-20T02:01:12;11.70;;;5.85;;
74908;SDS011;63468;52.058;4.824;2023-08-20T02:03:37;13.27;;;5.95;;
74908;SDS011;63468;52.058;4.824;2023-08-20T02:06:03;11.23;;;5.63;;
74908;SDS011;63468;52.058;4.824;2023-08-20T02:08:28;14.25;;;6.82;;
74908;SDS011;63468;52.058;4.824;2023-08-20T02:11:03;11.43;;;5.85;;
74908;SDS011;63468;52.058;4.824;2023-08-20T02:13:29;11.13;;;6.28;;
74908;SDS011;63468;52.058;4.824;2023-08-20T02:15:58;9.70;;;5.82;;
74908;SDS011;63468;52.058;4.824;2023-08-20T02:18:26;12.13;;;6.00;;
74908;SDS011;63468;52.058;4.824;2023-08-20T02:20:52;13.07;;;6.20;;
74908;SDS011;63468;52.058;4.824;2023-08-20T02:23:17;11.23;;;5.57;;
74908;SDS011;63468;52.058;4.824;2023-08-20T02:25:43;11.48;;;6.32;;
74908;SDS011;63468;52.058;4.824;2023-08-20T02:28:08;13.05;;;6.45;;
74908;SDS011;63468;52.058;4.824;2023-08-20T02:30:39;16.75;;;7.13;;
74908;SDS011;63468;52.058;4.824;2023-08-20T02:33:06;11.38;;;6.10;;
74908;SDS011;63468;52.058;4.824;2023-08-20T02:35:31;13.40;;;6.28;;
74908;SDS011;63468;52.058;4.824;2023-08-20T02:37:56;13.10;;;7.45;;
74908;SDS011;63468;52.058;4.824;2023-08-20T02:40:22;12.00;;;6.35;;
74908;SDS011;63468;52.058;4.824;2023-08-20T02:42:47;13.80;;;6.60;;
74908;SDS011;63468;52.058;4.824;2023-08-20T02:45:12;16.58;;;7.70;;
74908;SDS011;63468;52.058;4.824;2023-08-20T02:47:38;13.18;;;6.38;;
74908;SDS011;63468;52.058;4.824;2023-08-20T02:50:03;13.82;;;6.40;;
74908;SDS011;63468;52.058;4.824;2023-08-20T02:52:29;11.52;;;6.30;;
74908;SDS011;63468;52.058;4.824;2023-08-20T02:54:54;11.07;;;6.07;;
74908;SDS011;63468;52.058;4.824;2023-08-20T02:57:19;13.90;;;6.40;;
74908;SDS011;63468;52.058;4.824;2023-08-20T02:59:45;10.45;;;6.28;;
74908;SDS011;63468;52.058;4.824;2023-08-20T03:02:11;13.25;;;6.47;;
74908;SDS011;63468;52.058;4.824;2023-08-20T03:04:36;12.18;;;6.22;;
74908;SDS011;63468;52.058;4.824;2023-08-20T03:07:01;15.50;;;8.00;;
74908;SDS011;63468;52.058;4.824;2023-08-20T03:09:27;11.65;;;7.63;;
74908;SDS011;63468;52.058;4.824;2023-08-20T03:11:53;14.25;;;6.85;;
74908;SDS011;63468;52.058;4.824;2023-08-20T03:14:18;14.82;;;8.07;;
74908;SDS011;63468;52.058;4.824;2023-08-20T03:16:44;14.10;;;7.05;;
74908;SDS011;63468;52.058;4.824;2023-08-20T03:19:09;16.30;;;7.25;;
74908;SDS011;63468;52.058;4.824;2023-08-20T03:21:34;12.60;;;6.82;;
74908;SDS011;63468;52.058;4.824;2023-08-20T03:24:00;14.45;;;6.35;;
74908;SDS011;63468;52.058;4.824;2023-08-20T03:26:25;13.18;;;7.47;;
74908;SDS011;63468;52.058;4.824;2023-08-20T03:28:50;14.90;;;6.85;;
74908;SDS011;63468;52.058;4.824;2023-08-20T03:31:16;13.07;;;6.88;;
74908;SDS011;63468;52.058;4.824;2023-08-20T03:33:41;11.90;;;6.30;;
74908;SDS011;63468;52.058;4.824;2023-08-20T03:36:07;18.08;;;7.32;;
74908;SDS011;63468;52.058;4.824;2023-08-20T03:38:32;12.80;;;6.68;;
74908;SDS011;63468;52.058;4.824;2023-08-20T03:40:57;12.93;;;6.22;;
74908;SDS011;63468;52.058;4.824;2023-08-20T03:43:23;17.23;;;6.55;;
74908;SDS011;63468;52.058;4.824;2023-08-20T03:45:51;10.88;;;6.47;;
74908;SDS011;63468;52.058;4.824;2023-08-20T03:48:17;11.20;;;6.63;;
74908;SDS011;63468;52.058;4.824;2023-08-20T03:50:42;14.32;;;6.13;;
74908;SDS011;63468;52.058;4.824;2023-08-20T03:53:07;13.40;;;6.28;;
74908;SDS011;63468;52.058;4.824;2023-08-20T03:55:33;12.63;;;6.65;;
74908;SDS011;63468;52.058;4.824;2023-08-20T03:57:58;12.90;;;7.20;;
74908;SDS011;63468;52.058;4.824;2023-08-20T04:00:23;10.20;;;6.20;;
74908;SDS011;63468;52.058;4.824;2023-08-20T04:02:49;11.82;;;6.32;;
74908;SDS011;63468;52.058;4.824;2023-08-20T04:05:14;15.57;;;6.60;;
74908;SDS011;63468;52.058;4.824;2023-08-20T04:07:39;9.88;;;5.93;;
74908;SDS011;63468;52.058;4.824;2023-08-20T04:10:05;16.10;;;7.10;;
74908;SDS011;63468;52.058;4.824;2023-08-20T04:12:30;13.38;;;6.50;;
74908;SDS011;63468;52.058;4.824;2023-08-20T04:14:56;11.68;;;6.43;;
74908;SDS011;63468;52.058;4.824;2023-08-20T04:17:21;13.98;;;7.07;;
74908;SDS011;63468;52.058;4.824;2023-08-20T04:19:46;10.45;;;5.82;;
74908;SDS011;63468;52.058;4.824;2023-08-20T04:22:12;12.90;;;6.30;;
74908;SDS011;63468;52.058;4.824;2023-08-20T04:24:37;14.10;;;6.22;;
74908;SDS011;63468;52.058;4.824;2023-08-20T04:27:03;17.00;;;6.53;;
74908;SDS011;63468;52.058;4.824;2023-08-20T04:29:29;12.50;;;6.25;;
74908;SDS011;63468;52.058;4.824;2023-08-20T04:31:54;12.60;;;6.15;;
74908;SDS011;63468;52.058;4.824;2023-08-20T04:34:19;10.55;;;5.90;;
74908;SDS011;63468;52.058;4.824;2023-08-20T04:36:45;12.30;;;6.28;;
74908;SDS011;63468;52.058;4.824;2023-08-20T04:39:10;9.90;;;5.28;;
74908;SDS011;63468;52.058;4.824;2023-08-20T04:41:35;9.70;;;5.32;;
74908;SDS011;63468;52.058;4.824;2023-08-20T04:44:00;11.77;;;5.55;;
74908;SDS011;63468;52.058;4.824;2023-08-20T04:46:26;11.77;;;6.05;;
74908;SDS011;63468;52.058;4.824;2023-08-20T04:48:53;10.60;;;4.80;;
74908;SDS011;63468;52.058;4.824;2023-08-20T04:51:18;10.18;;;5.57;;
74908;SDS011;63468;52.058;4.824;2023-08-20T04:53:44;12.50;;;5.47;;
74908;SDS011;63468;52.058;4.824;2023-08-20T04:56:09;13.50;;;6.18;;
74908;SDS011;63468;52.058;4.824;2023-08-20T04:58:34;11.57;;;5.80;;
74908;SDS011;63468;52.058;4.824;2023-08-20T05:01:00;9.93;;;5.60;;
74908;SDS011;63468;52.058;4.824;2023-08-20T05:03:26;12.77;;;5.70;;
74908;SDS011;63468;52.058;4.824;2023-08-20T05:05:51;11.40;;;6.75;;
74908;SDS011;63468;52.058;4.824;2023-08-20T05:08:17;13.30;;;6.68;;
74908;SDS011;63468;52.058;4.824;2023-08-20T05:10:42;11.80;;;6.32;;
74908;SDS011;63468;52.058;4.824;2023-08-20T05:13:08;10.10;;;5.50;;
74908;SDS011;63468;52.058;4.824;2023-08-20T05:15:33;12.43;;;5.95;;
74908;SDS011;63468;52.058;4.824;2023-08-20T05:17:58;9.35;;;6.22;;
74908;SDS011;63468;52.058;4.824;2023-08-20T05:20:24;9.05;;;5.65;;
74908;SDS011;63468;52.058;4.824;2023-08-20T05:22:49;8.05;;;5.82;;
74908;SDS011;63468;52.058;4.824;2023-08-20T05:25:14;10.23;;;6.35;;
74908;SDS011;63468;52.058;4.824;2023-08-20T05:27:40;10.80;;;7.00;;
74908;SDS011;63468;52.058;4.824;2023-08-20T05:30:05;10.55;;;6.22;;
74908;SDS011;63468;52.058;4.824;2023-08-20T05:32:33;10.68;;;6.40;;
74908;SDS011;63468;52.058;4.824;2023-08-20T05:34:58;10.38;;;5.70;;
74908;SDS011;63468;52.058;4.824;2023-08-20T05:37:24;13.70;;;6.97;;
74908;SDS011;63468;52.058;4.824;2023-08-20T05:39:49;12.90;;;6.53;;
74908;SDS011;63468;52.058;4.824;2023-08-20T05:42:14;14.27;;;6.90;;
74908;SDS011;63468;52.058;4.824;2023-08-20T05:44:39;10.77;;;6.25;;
74908;SDS011;63468;52.058;4.824;2023-08-20T05:47:05;12.18;;;6.35;;
74908;SDS011;63468;52.058;4.824;2023-08-20T05:49:30;11.88;;;6.32;;
74908;SDS011;63468;52.058;4.824;2023-08-20T05:51:56;16.23;;;6.82;;
74908;SDS011;63468;52.058;4.824;2023-08-20T05:54:21;12.90;;;6.97;;
74908;SDS011;63468;52.058;4.824;2023-08-20T05:56:46;13.48;;;6.95;;
74908;SDS011;63468;52.058;4.824;2023-08-20T05:59:12;13.25;;;6.70;;
74908;SDS011;63468;52.058;4.824;2023-08-20T06:01:37;10.93;;;7.00;;
74908;SDS011;63468;52.058;4.824;2023-08-20T06:04:02;16.95;;;7.32;;
74908;SDS011;63468;52.058;4.824;2023-08-20T06:06:28;13.40;;;7.03;;
74908;SDS011;63468;52.058;4.824;2023-08-20T06:08:53;12.25;;;6.88;;
74908;SDS011;63468;52.058;4.824;2023-08-20T06:11:19;11.48;;;6.68;;
74908;SDS011;63468;52.058;4.824;2023-08-20T06:13:45;10.27;;;7.03;;
74908;SDS011;63468;52.058;4.824;2023-08-20T06:16:10;13.55;;;6.82;;
74908;SDS011;63468;52.058;4.824;2023-08-20T06:18:35;10.15;;;7.43;;
74908;SDS011;63468;52.058;4.824;2023-08-20T06:21:01;13.40;;;7.70;;
74908;SDS011;63468;52.058;4.824;2023-08-20T06:23:27;12.70;;;7.93;;
74908;SDS011;63468;52.058;4.824;2023-08-20T06:25:52;21.80;;;7.72;;
74908;SDS011;63468;52.058;4.824;2023-08-20T06:28:19;11.32;;;7.15;;
74908;SDS011;63468;52.058;4.824;2023-08-20T06:30:44;15.48;;;7.93;;
74908;SDS011;63468;52.058;4.824;2023-08-20T06:33:10;11.63;;;7.65;;
74908;SDS011;63468;52.058;4.824;2023-08-20T06:35:36;15.20;;;7.90;;
74908;SDS011;63468;52.058;4.824;2023-08-20T06:38:01;15.38;;;7.85;;
74908;SDS011;63468;52.058;4.824;2023-08-20T06:40:27;10.93;;;7.55;;
74908;SDS011;63468;52.058;4.824;2023-08-20T06:42:52;13.20;;;7.50;;
74908;SDS011;63468;52.058;4.824;2023-08-20T06:45:17;11.90;;;8.07;;
74908;SDS011;63468;52.058;4.824;2023-08-20T06:47:43;14.25;;;8.13;;
74908;SDS011;63468;52.058;4.824;2023-08-20T06:50:08;17.67;;;8.60;;
74908;SDS011;63468;52.058;4.824;2023-08-20T06:52:34;15.90;;;7.65;;
74908;SDS011;63468;52.058;4.824;2023-08-20T06:54:59;12.98;;;8.23;;
74908;SDS011;63468;52.058;4.824;2023-08-20T06:57:24;12.48;;;8.38;;
74908;SDS011;63468;52.058;4.824;2023-08-20T06:59:50;18.25;;;7.93;;
74908;SDS011;63468;52.058;4.824;2023-08-20T07:02:15;14.18;;;7.93;;
74908;SDS011;63468;52.058;4.824;2023-08-20T07:04:40;17.77;;;8.50;;
74908;SDS011;63468;52.058;4.824;2023-08-20T07:07:06;17.88;;;7.97;;
74908;SDS011;63468;52.058;4.824;2023-08-20T07:09:31;11.68;;;7.57;;
74908;SDS011;63468;52.058;4.824;2023-08-20T07:11:56;14.63;;;9.25;;
74908;SDS011;63468;52.058;4.824;2023-08-20T07:14:22;17.55;;;8.40;;
74908;SDS011;63468;52.058;4.824;2023-08-20T07:16:47;16.70;;;8.32;;
74908;SDS011;63468;52.058;4.824;2023-08-20T07:19:12;15.45;;;8.38;;
74908;SDS011;63468;52.058;4.824;2023-08-20T07:21:37;14.57;;;7.97;;
74908;SDS011;63468;52.058;4.824;2023-08-20T07:24:03;11.65;;;7.22;;
74908;SDS011;63468;52.058;4.824;2023-08-20T07:26:29;12.50;;;7.20;;
74908;SDS011;63468;52.058;4.824;2023-08-20T07:28:55;14.95;;;8.40;;
74908;SDS011;63468;52.058;4.824;2023-08-20T07:31:27;15.32;;;7.55;;
74908;SDS011;63468;52.058;4.824;2023-08-20T07:33:53;17.17;;;7.45;;
74908;SDS011;63468;52.058;4.824;2023-08-20T07:36:20;11.75;;;7.75;;
74908;SDS011;63468;52.058;4.824;2023-08-20T07:38:47;14.52;;;7.50;;
74908;SDS011;63468;52.058;4.824;2023-08-20T07:41:12;12.65;;;6.88;;
74908;SDS011;63468;52.058;4.824;2023-08-20T07:43:38;15.82;;;6.82;;
74908;SDS011;63468;52.058;4.824;2023-08-20T07:46:04;11.40;;;7.03;;
74908;SDS011;63468;52.058;4.824;2023-08-20T07:48:30;11.95;;;6.68;;
74908;SDS011;63468;52.058;4.824;2023-08-20T07:50:55;13.82;;;6.90;;
74908;SDS011;63468;52.058;4.824;2023-08-20T07:53:20;16.10;;;6.82;;
74908;SDS011;63468;52.058;4.824;2023-08-20T07:55:46;10.80;;;6.75;;
74908;SDS011;63468;52.058;4.824;2023-08-20T07:58:11;11.07;;;7.20;;
74908;SDS011;63468;52.058;4.824;2023-08-20T08:00:36;14.15;;;7.18;;
74908;SDS011;63468;52.058;4.824;2023-08-20T08:03:02;16.60;;;8.23;;
74908;SDS011;63468;52.058;4.824;2023-08-20T08:05:27;15.73;;;7.53;;
74908;SDS011;63468;52.058;4.824;2023-08-20T08:07:53;14.50;;;7.50;;
74908;SDS011;63468;52.058;4.824;2023-08-20T08:10:18;11.73;;;6.30;;
74908;SDS011;63468;52.058;4.824;2023-08-20T08:12:44;12.68;;;5.78;;
74908;SDS011;63468;52.058;4.824;2023-08-20T08:15:09;7.97;;;5.90;;
74908;SDS011;63468;52.058;4.824;2023-08-20T08:17:34;11.30;;;6.22;;
74908;SDS011;63468;52.058;4.824;2023-08-20T08:20:00;12.93;;;7.03;;
74908;SDS011;63468;52.058;4.824;2023-08-20T08:22:25;12.70;;;5.82;;
74908;SDS011;63468;52.058;4.824;2023-08-20T08:24:50;13.00;;;6.80;;
74908;SDS011;63468;52.058;4.824;2023-08-20T08:27:16;11.73;;;6.55;;
74908;SDS011;63468;52.058;4.824;2023-08-20T08:29:41;14.00;;;6.78;;
74908;SDS011;63468;52.058;4.824;2023-08-20T08:32:06;10.90;;;6.75;;
74908;SDS011;63468;52.058;4.824;2023-08-20T08:34:31;11.73;;;6.38;;
74908;SDS011;63468;52.058;4.824;2023-08-20T08:36:57;13.52;;;6.50;;
74908;SDS011;63468;52.058;4.824;2023-08-20T08:39:22;13.82;;;7.70;;
74908;SDS011;63468;52.058;4.824;2023-08-20T08:41:51;13.20;;;6.20;;
74908;SDS011;63468;52.058;4.824;2023-08-20T08:44:19;13.05;;;6.90;;
74908;SDS011;63468;52.058;4.824;2023-08-20T08:46:46;10.15;;;6.57;;
74908;SDS011;63468;52.058;4.824;2023-08-20T08:49:14;12.73;;;7.10;;
74908;SDS011;63468;52.058;4.824;2023-08-20T08:51:40;11.88;;;7.10;;
74908;SDS011;63468;52.058;4.824;2023-08-20T08:54:07;11.38;;;6.65;;
74908;SDS011;63468;52.058;4.824;2023-08-20T08:56:33;12.57;;;7.03;;
74908;SDS011;63468;52.058;4.824;2023-08-20T08:58:58;11.45;;;7.97;;
74908;SDS011;63468;52.058;4.824;2023-08-20T09:01:23;12.15;;;7.57;;
74908;SDS011;63468;52.058;4.824;2023-08-20T09:03:49;10.82;;;7.60;;
74908;SDS011;63468;52.058;4.824;2023-08-20T09:06:14;15.63;;;7.60;;
74908;SDS011;63468;52.058;4.824;2023-08-20T09:08:39;9.52;;;7.85;;
74908;SDS011;63468;52.058;4.824;2023-08-20T09:11:05;12.27;;;7.22;;
74908;SDS011;63468;52.058;4.824;2023-08-20T09:13:34;8.90;;;7.30;;
74908;SDS011;63468;52.058;4.824;2023-08-20T09:15:59;12.13;;;7.50;;
74908;SDS011;63468;52.058;4.824;2023-08-20T09:18:29;9.40;;;7.75;;
74908;SDS011;63468;52.058;4.824;2023-08-20T09:20:54;13.27;;;7.93;;
74908;SDS011;63468;52.058;4.824;2023-08-20T09:23:19;10.98;;;8.20;;
74908;SDS011;63468;52.058;4.824;2023-08-20T09:25:45;15.02;;;7.75;;
74908;SDS011;63468;52.058;4.824;2023-08-20T09:28:10;11.30;;;7.40;;
74908;SDS011;63468;52.058;4.824;2023-08-20T09:30:36;9.82;;;8.10;;
74908;SDS011;63468;52.058;4.824;2023-08-20T09:33:05;12.68;;;8.32;;
74908;SDS011;63468;52.058;4.824;2023-08-20T09:35:30;11.75;;;8.70;;
74908;SDS011;63468;52.058;4.824;2023-08-20T09:37:59;8.95;;;8.15;;
74908;SDS011;63468;52.058;4.824;2023-08-20T09:40:26;12.77;;;8.95;;
74908;SDS011;63468;52.058;4.824;2023-08-20T09:42:52;10.98;;;8.57;;
74908;SDS011;63468;52.058;4.824;2023-08-20T09:45:19;12.18;;;8.95;;
74908;SDS011;63468;52.058;4.824;2023-08-20T09:47:45;13.48;;;8.43;;
74908;SDS011;63468;52.058;4.824;2023-08-20T09:50:13;12.68;;;8.88;;
74908;SDS011;63468;52.058;4.824;2023-08-20T09:52:48;9.85;;;8.95;;
74908;SDS011;63468;52.058;4.824;2023-08-20T09:55:21;9.80;;;8.45;;
74908;SDS011;63468;52.058;4.824;2023-08-20T09:57:47;11.20;;;8.50;;
74908;SDS011;63468;52.058;4.824;2023-08-20T10:00:13;9.25;;;8.32;;
74908;SDS011;63468;52.058;4.824;2023-08-20T10:02:40;9.93;;;8.70;;
74908;SDS011;63468;52.058;4.824;2023-08-20T10:05:07;9.40;;;8.40;;
74908;SDS011;63468;52.058;4.824;2023-08-20T10:07:36;11.18;;;8.38;;
74908;SDS011;63468;52.058;4.824;2023-08-20T10:10:02;10.00;;;7.80;;
74908;SDS011;63468;52.058;4.824;2023-08-20T10:12:32;8.82;;;7.93;;
74908;SDS011;63468;52.058;4.824;2023-08-20T10:15:01;10.85;;;9.18;;
74908;SDS011;63468;52.058;4.824;2023-08-20T10:17:30;9.68;;;8.50;;
74908;SDS011;63468;52.058;4.824;2023-08-20T10:19:58;10.57;;;9.20;;
74908;SDS011;63468;52.058;4.824;2023-08-20T10:22:32;10.80;;;8.95;;
74908;SDS011;63468;52.058;4.824;2023-08-20T10:24:58;9.40;;;8.18;;
74908;SDS011;63468;52.058;4.824;2023-08-20T10:27:32;9.63;;;8.30;;
74908;SDS011;63468;52.058;4.824;2023-08-20T10:29:59;10.55;;;8.48;;
74908;SDS011;63468;52.058;4.824;2023-08-20T10:32:58;9.25;;;8.32;;
74908;SDS011;63468;52.058;4.824;2023-08-20T10:35:18;10.00;;;8.52;;
74908;SDS011;63468;52.058;4.824;2023-08-20T10:46:04;9.10;;;7.97;;
74908;SDS011;63468;52.058;4.824;2023-08-20T10:48:32;10.88;;;7.57;;
74908;SDS011;63468;52.058;4.824;2023-08-20T10:51:10;9.88;;;8.30;;
74908;SDS011;63468;52.058;4.824;2023-08-20T10:59:09;9.82;;;8.80;;
74908;SDS011;63468;52.058;4.824;2023-08-20T11:01:45;11.00;;;8.77;;
74908;SDS011;63468;52.058;4.824;2023-08-20T11:04:12;9.77;;;8.77;;
74908;SDS011;63468;52.058;4.824;2023-08-20T11:06:38;13.45;;;7.78;;
74908;SDS011;63468;52.058;4.824;2023-08-20T11:09:04;9.15;;;8.05;;
74908;SDS011;63468;52.058;4.824;2023-08-20T11:11:30;10.27;;;7.93;;
74908;SDS011;63468;52.058;4.824;2023-08-20T11:13:56;10.93;;;8.70;;
74908;SDS011;63468;52.058;4.824;2023-08-20T11:16:22;10.32;;;8.40;;
74908;SDS011;63468;52.058;4.824;2023-08-20T11:18:47;9.50;;;7.60;;
74908;SDS011;63468;52.058;4.824;2023-08-20T11:21:12;9.45;;;7.65;;
74908;SDS011;63468;52.058;4.824;2023-08-20T11:23:38;10.18;;;8.75;;
74908;SDS011;63468;52.058;4.824;2023-08-20T11:26:04;12.45;;;8.48;;
74908;SDS011;63468;52.058;4.824;2023-08-20T11:28:30;9.75;;;8.75;;
74908;SDS011;63468;52.058;4.824;2023-08-20T11:30:55;13.55;;;8.25;;
74908;SDS011;63468;52.058;4.824;2023-08-20T11:33:22;10.50;;;8.00;;
74908;SDS011;63468;52.058;4.824;2023-08-20T11:35:48;11.98;;;9.35;;
74908;SDS011;63468;52.058;4.824;2023-08-20T11:38:14;9.30;;;8.13;;
74908;SDS011;63468;52.058;4.824;2023-08-20T11:40:40;11.85;;;8.00;;
74908;SDS011;63468;52.058;4.824;2023-08-20T11:43:05;13.18;;;8.15;;
74908;SDS011;63468;52.058;4.824;2023-08-20T11:45:31;11.82;;;8.18;;
74908;SDS011;63468;52.058;4.824;2023-08-20T11:47:57;11.07;;;8.25;;
74908;SDS011;63468;52.058;4.824;2023-08-20T11:50:23;9.77;;;8.07;;
74908;SDS011;63468;52.058;4.824;2023-08-20T11:52:48;10.05;;;7.88;;
74908;SDS011;63468;52.058;4.824;2023-08-20T11:55:14;9.25;;;8.10;;
74908;SDS011;63468;52.058;4.824;2023-08-20T11:57:39;8.55;;;7.75;;
74908;SDS011;63468;52.058;4.824;2023-08-20T12:00:05;8.82;;;7.93;;
74908;SDS011;63468;52.058;4.824;2023-08-20T12:02:34;8.38;;;7.57;;
74908;SDS011;63468;52.058;4.824;2023-08-20T12:05:00;10.10;;;8.05;;
74908;SDS011;63468;52.058;4.824;2023-08-20T12:07:25;8.77;;;7.75;;
74908;SDS011;63468;52.058;4.824;2023-08-20T12:09:54;10.63;;;8.50;;
74908;SDS011;63468;52.058;4.824;2023-08-20T12:12:20;9.48;;;7.95;;
74908;SDS011;63468;52.058;4.824;2023-08-20T12:14:46;11.40;;;8.60;;
74908;SDS011;63468;52.058;4.824;2023-08-20T12:17:12;10.65;;;8.27;;
74908;SDS011;63468;52.058;4.824;2023-08-20T12:19:37;8.93;;;7.57;;
74908;SDS011;63468;52.058;4.824;2023-08-20T12:22:03;8.93;;;7.93;;
74908;SDS011;63468;52.058;4.824;2023-08-20T12:24:28;9.95;;;8.00;;
74908;SDS011;63468;52.058;4.824;2023-08-20T12:26:54;9.50;;;7.60;;
74908;SDS011;63468;52.058;4.824;2023-08-20T12:29:19;9.27;;;7.90;;
74908;SDS011;63468;52.058;4.824;2023-08-20T12:31:45;9.27;;;8.32;;
74908;SDS011;63468;52.058;4.824;2023-08-20T12:34:10;9.10;;;8.18;;
74908;SDS011;63468;52.058;4.824;2023-08-20T12:36:36;9.93;;;8.93;;
74908;SDS011;63468;52.058;4.824;2023-08-20T12:39:01;11.25;;;8.05;;
74908;SDS011;63468;52.058;4.824;2023-08-20T12:41:28;10.38;;;8.30;;
74908;SDS011;63468;52.058;4.824;2023-08-20T12:43:54;10.57;;;8.13;;
74908;SDS011;63468;52.058;4.824;2023-08-20T12:46:19;22.83;;;17.25;;
74908;SDS011;63468;52.058;4.824;2023-08-20T12:48:45;9.95;;;8.65;;
74908;SDS011;63468;52.058;4.824;2023-08-20T12:51:10;10.02;;;8.40;;
74908;SDS011;63468;52.058;4.824;2023-08-20T12:53:38;8.80;;;7.90;;
74908;SDS011;63468;52.058;4.824;2023-08-20T12:56:03;9.85;;;8.85;;
74908;SDS011;63468;52.058;4.824;2023-08-20T12:58:32;9.70;;;8.68;;
74908;SDS011;63468;52.058;4.824;2023-08-20T13:00:57;9.15;;;8.25;;
74908;SDS011;63468;52.058;4.824;2023-08-20T13:03:23;9.55;;;8.52;;
74908;SDS011;63468;52.058;4.824;2023-08-20T13:05:48;9.63;;;8.73;;
74908;SDS011;63468;52.058;4.824;2023-08-20T13:08:14;11.65;;;9.45;;
74908;SDS011;63468;52.058;4.824;2023-08-20T13:10:40;9.38;;;8.48;;
74908;SDS011;63468;52.058;4.824;2023-08-20T13:13:06;9.88;;;8.80;;
74908;SDS011;63468;52.058;4.824;2023-08-20T13:15:35;9.98;;;8.68;;
74908;SDS011;63468;52.058;4.824;2023-08-20T13:18:00;10.02;;;8.50;;
74908;SDS011;63468;52.058;4.824;2023-08-20T13:20:27;9.82;;;8.82;;
74908;SDS011;63468;52.058;4.824;2023-08-20T13:22:52;12.20;;;10.30;;
74908;SDS011;63468;52.058;4.824;2023-08-20T13:25:18;14.30;;;9.02;;
74908;SDS011;63468;52.058;4.824;2023-08-20T13:27:43;9.88;;;8.88;;
74908;SDS011;63468;52.058;4.824;2023-08-20T13:30:09;11.35;;;8.95;;
74908;SDS011;63468;52.058;4.824;2023-08-20T13:32:35;12.40;;;8.02;;
74908;SDS011;63468;52.058;4.824;2023-08-20T13:35:01;9.77;;;7.82;;
74908;SDS011;63468;52.058;4.824;2023-08-20T13:37:29;8.60;;;7.80;;
74908;SDS011;63468;52.058;4.824;2023-08-20T13:39:56;9.30;;;8.15;;
74908;SDS011;63468;52.058;4.824;2023-08-20T13:42:21;11.38;;;8.60;;
74908;SDS011;63468;52.058;4.824;2023-08-20T13:44:46;13.90;;;8.70;;
74908;SDS011;63468;52.058;4.824;2023-08-20T13:47:12;11.65;;;8.88;;
74908;SDS011;63468;52.058;4.824;2023-08-20T13:49:37;9.60;;;8.70;;
74908;SDS011;63468;52.058;4.824;2023-08-20T13:52:02;10.85;;;7.90;;
74908;SDS011;63468;52.058;4.824;2023-08-20T13:54:28;9.30;;;8.10;;
74908;SDS011;63468;52.058;4.824;2023-08-20T13:56:53;9.60;;;8.57;;
74908;SDS011;63468;52.058;4.824;2023-08-20T13:59:18;10.02;;;8.93;;
74908;SDS011;63468;52.058;4.824;2023-08-20T14:01:43;10.32;;;8.65;;
74908;SDS011;63468;52.058;4.824;2023-08-20T14:04:09;10.07;;;9.05;;
74908;SDS011;63468;52.058;4.824;2023-08-20T14:06:34;9.68;;;8.77;;
74908;SDS011;63468;52.058;4.824;2023-08-20T14:08:59;12.73;;;8.85;;
74908;SDS011;63468;52.058;4.824;2023-08-20T14:11:26;13.32;;;8.93;;
74908;SDS011;63468;52.058;4.824;2023-08-20T14:13:51;12.07;;;9.23;;
74908;SDS011;63468;52.058;4.824;2023-08-20T14:16:16;11.48;;;9.32;;
74908;SDS011;63468;52.058;4.824;2023-08-20T14:18:42;12.23;;;9.75;;
74908;SDS011;63468;52.058;4.824;2023-08-20T14:21:07;11.30;;;9.13;;
74908;SDS011;63468;52.058;4.824;2023-08-20T14:23:33;10.48;;;8.55;;
74908;SDS011;63468;52.058;4.824;2023-08-20T14:26:00;11.35;;;8.50;;
74908;SDS011;63468;52.058;4.824;2023-08-20T14:28:25;12.93;;;9.40;;
74908;SDS011;63468;52.058;4.824;2023-08-20T14:30:50;9.85;;;8.93;;
74908;SDS011;63468;52.058;4.824;2023-08-20T14:33:18;11.43;;;9.40;;
74908;SDS011;63468;52.058;4.824;2023-08-20T14:35:43;9.93;;;8.93;;
74908;SDS011;63468;52.058;4.824;2023-08-20T14:38:08;9.52;;;8.50;;
74908;SDS011;63468;52.058;4.824;2023-08-20T14:40:37;10.15;;;8.48;;
74908;SDS011;63468;52.058;4.824;2023-08-20T14:43:05;9.75;;;8.57;;
74908;SDS011;63468;52.058;4.824;2023-08-20T14:45:30;11.65;;;8.48;;
74908;SDS011;63468;52.058;4.824;2023-08-20T14:47:56;10.88;;;9.00;;
74908;SDS011;63468;52.058;4.824;2023-08-20T14:50:21;9.50;;;8.35;;
74908;SDS011;63468;52.058;4.824;2023-08-20T14:52:47;9.70;;;8.50;;
74908;SDS011;63468;52.058;4.824;2023-08-20T14:55:17;9.73;;;8.73;;